sensor_id;sensor_type;location;lat;lon;timestamp;temperature;humidity
46336;DHT22;31365;48.858;8.530;2023-03-15T00:02:23;3.20;99.90
46336;DHT22;31365;48.858;8.530;2023-03-15T00:04:52;3.20;99.90
46336;DHT22;31365;48.858;8.530;2023-03-15T00:10:39;3.10;99.90
46336;DHT22;31365;48.858;8.530;2023-03-15T00:13:10;3.00;99.90
46336;DHT22;31365;48.858;8.530;2023-03-15T00:15:46;3.00;99.90
46336;DHT22;31365;48.858;8.530;2023-03-15T00:18:20;2.80;99.90
46336;DHT22;31365;48.858;8.530;2023-03-15T00:20:49;2.90;99.90
46336;DHT22;31365;48.858;8.530;2023-03-15T00:23:18;2.80;99.90
46336;DHT22;31365;48.858;8.530;2023-03-15T00:25:48;3.70;99.90
46336;DHT22;31365;48.858;8.530;2023-03-15T00:28:19;3.40;99.90
46336;DHT22;31365;48.858;8.530;2023-03-15T00:31:02;3.60;99.90
46336;DHT22;31365;48.858;8.530;2023-03-15T00:33:33;2.70;99.90
46336;DHT22;31365;48.858;8.530;2023-03-15T00:36:10;3.00;99.90
46336;DHT22;31365;48.858;8.530;2023-03-15T00:38:40;2.60;99.90
46336;DHT22;31365;48.858;8.530;2023-03-15T00:41:15;2.50;99.90
46336;DHT22;31365;48.858;8.530;2023-03-15T00:44:22;2.50;99.90
46336;DHT22;31365;48.858;8.530;2023-03-15T00:46:52;2.50;99.90
46336;DHT22;31365;48.858;8.530;2023-03-15T00:49:47;2.50;99.90
46336;DHT22;31365;48.858;8.530;2023-03-15T00:52:54;2.40;99.90
46336;DHT22;31365;48.858;8.530;2023-03-15T00:55:24;2.70;99.90
46336;DHT22;31365;48.858;8.530;2023-03-15T00:57:55;2.40;99.90
46336;DHT22;31365;48.858;8.530;2023-03-15T01:00:27;2.30;99.90
46336;DHT22;31365;48.858;8.530;2023-03-15T01:02:56;2.30;99.90
46336;DHT22;31365;48.858;8.530;2023-03-15T04:29:28;1.20;99.90
46336;DHT22;31365;48.858;8.530;2023-03-15T06:53:17;2.40;99.90
46336;DHT22;31365;48.858;8.530;2023-03-15T06:56:20;2.50;99.90
46336;DHT22;31365;48.858;8.530;2023-03-15T06:59:22;2.60;99.90
46336;DHT22;31365;48.858;8.530;2023-03-15T07:10:44;2.90;99.90
46336;DHT22;31365;48.858;8.530;2023-03-15T07:16:50;3.10;99.90
46336;DHT22;31365;48.858;8.530;2023-03-15T07:22:43;3.30;99.90
46336;DHT22;31365;48.858;8.530;2023-03-15T07:25:43;3.40;99.90
46336;DHT22;31365;48.858;8.530;2023-03-15T07:28:21;3.50;99.90
46336;DHT22;31365;48.858;8.530;2023-03-15T07:30:53;3.70;99.90
46336;DHT22;31365;48.858;8.530;2023-03-15T07:33:23;3.80;99.90
46336;DHT22;31365;48.858;8.530;2023-03-15T07:35:56;3.90;99.90
46336;DHT22;31365;48.858;8.530;2023-03-15T07:38:26;4.00;99.90
46336;DHT22;31365;48.858;8.530;2023-03-15T07:41:00;4.10;99.90
46336;DHT22;31365;48.858;8.530;2023-03-15T07:43:40;4.20;99.90
46336;DHT22;31365;48.858;8.530;2023-03-15T07:46:27;4.30;99.90
46336;DHT22;31365;48.858;8.530;2023-03-15T07:49:01;4.50;99.90
46336;DHT22;31365;48.858;8.530;2023-03-15T07:51:30;4.60;99.90
46336;DHT22;31365;48.858;8.530;2023-03-15T07:53:59;4.80;99.90
46336;DHT22;31365;48.858;8.530;2023-03-15T07:56:30;4.90;99.90
46336;DHT22;31365;48.858;8.530;2023-03-15T07:58:59;5.20;99.90
46336;DHT22;31365;48.858;8.530;2023-03-15T08:01:27;5.00;99.90
46336;DHT22;31365;48.858;8.530;2023-03-15T08:03:56;5.20;99.90
46336;DHT22;31365;48.858;8.530;2023-03-15T08:06:26;5.30;99.90
46336;DHT22;31365;48.858;8.530;2023-03-15T08:08:55;5.30;99.90
46336;DHT22;31365;48.858;8.530;2023-03-15T08:11:24;5.30;99.90
46336;DHT22;31365;48.858;8.530;2023-03-15T08:13:55;5.40;99.90
46336;DHT22;31365;48.858;8.530;2023-03-15T08:16:24;5.50;99.90
46336;DHT22;31365;48.858;8.530;2023-03-15T08:18:53;5.50;99.90
46336;DHT22;31365;48.858;8.530;2023-03-15T08:21:22;5.60;99.90
46336;DHT22;31365;48.858;8.530;2023-03-15T08:23:51;5.40;99.90
46336;DHT22;31365;48.858;8.530;2023-03-15T08:26:19;5.30;99.90
46336;DHT22;31365;48.858;8.530;2023-03-15T08:28:48;5.40;99.90
46336;DHT22;31365;48.858;8.530;2023-03-15T08:31:19;5.50;99.90
46336;DHT22;31365;48.858;8.530;2023-03-15T08:33:49;5.50;99.90
46336;DHT22;31365;48.858;8.530;2023-03-15T08:36:18;5.60;99.90
46336;DHT22;31365;48.858;8.530;2023-03-15T08:38:48;5.50;99.90
46336;DHT22;31365;48.858;8.530;2023-03-15T08:41:17;5.70;99.90
46336;DHT22;31365;48.858;8.530;2023-03-15T08:43:46;5.40;99.90
46336;DHT22;31365;48.858;8.530;2023-03-15T08:46:14;5.60;99.90
46336;DHT22;31365;48.858;8.530;2023-03-15T08:48:44;5.40;99.90
46336;DHT22;31365;48.858;8.530;2023-03-15T08:51:13;5.40;99.90
46336;DHT22;31365;48.858;8.530;2023-03-15T08:53:41;5.50;99.90
46336;DHT22;31365;48.858;8.530;2023-03-15T08:56:10;5.80;99.90
46336;DHT22;31365;48.858;8.530;2023-03-15T08:58:40;5.50;99.90
46336;DHT22;31365;48.858;8.530;2023-03-15T09:01:10;5.50;99.90
46336;DHT22;31365;48.858;8.530;2023-03-15T09:03:39;5.50;99.90
46336;DHT22;31365;48.858;8.530;2023-03-15T09:06:10;5.60;99.90
46336;DHT22;31365;48.858;8.530;2023-03-15T09:08:39;5.60;99.90
46336;DHT22;31365;48.858;8.530;2023-03-15T09:11:08;5.80;99.90
46336;DHT22;31365;48.858;8.530;2023-03-15T09:13:37;5.70;99.90
46336;DHT22;31365;48.858;8.530;2023-03-15T09:16:07;6.00;99.90
46336;DHT22;31365;48.858;8.530;2023-03-15T09:18:35;6.20;99.90
46336;DHT22;31365;48.858;8.530;2023-03-15T09:21:06;5.90;99.90
46336;DHT22;31365;48.858;8.530;2023-03-15T09:23:36;6.40;99.90
46336;DHT22;31365;48.858;8.530;2023-03-15T09:26:08;6.00;99.90
46336;DHT22;31365;48.858;8.530;2023-03-15T09:28:37;6.10;99.90
46336;DHT22;31365;48.858;8.530;2023-03-15T09:31:06;6.00;99.90
46336;DHT22;31365;48.858;8.530;2023-03-15T09:33:35;5.90;99.90
46336;DHT22;31365;48.858;8.530;2023-03-15T09:36:04;6.00;99.90
46336;DHT22;31365;48.858;8.530;2023-03-15T09:38:33;6.00;99.90
46336;DHT22;31365;48.858;8.530;2023-03-15T09:41:05;6.10;99.90
46336;DHT22;31365;48.858;8.530;2023-03-15T09:44:07;6.20;99.90
46336;DHT22;31365;48.858;8.530;2023-03-15T09:46:57;6.20;99.90
46336;DHT22;31365;48.858;8.530;2023-03-15T09:49:40;6.10;99.90
46336;DHT22;31365;48.858;8.530;2023-03-15T09:52:30;6.40;99.90
46336;DHT22;31365;48.858;8.530;2023-03-15T09:55:11;6.70;99.90
46336;DHT22;31365;48.858;8.530;2023-03-15T09:57:49;7.20;99.90
46336;DHT22;31365;48.858;8.530;2023-03-15T10:00:22;7.20;99.90
46336;DHT22;31365;48.858;8.530;2023-03-15T10:02:58;7.10;99.90
46336;DHT22;31365;48.858;8.530;2023-03-15T10:05:39;7.30;99.90
46336;DHT22;31365;48.858;8.530;2023-03-15T10:08:10;7.00;99.90
46336;DHT22;31365;48.858;8.530;2023-03-15T10:10:47;6.70;99.90
46336;DHT22;31365;48.858;8.530;2023-03-15T10:13:41;6.80;99.90
46336;DHT22;31365;48.858;8.530;2023-03-15T10:16:27;6.50;99.90
46336;DHT22;31365;48.858;8.530;2023-03-15T10:19:12;6.40;99.90
46336;DHT22;31365;48.858;8.530;2023-03-15T10:21:53;6.60;99.90
46336;DHT22;31365;48.858;8.530;2023-03-15T10:24:34;6.60;99.90
46336;DHT22;31365;48.858;8.530;2023-03-15T10:27:15;6.70;99.90
46336;DHT22;31365;48.858;8.530;2023-03-15T10:29:52;6.90;99.90
46336;DHT22;31365;48.858;8.530;2023-03-15T10:32:27;7.40;99.90
46336;DHT22;31365;48.858;8.530;2023-03-15T10:35:11;7.90;99.90
46336;DHT22;31365;48.858;8.530;2023-03-15T10:37:42;8.20;99.90
46336;DHT22;31365;48.858;8.530;2023-03-15T10:40:13;8.60;99.90
46336;DHT22;31365;48.858;8.530;2023-03-15T10:42:46;9.20;99.90
46336;DHT22;31365;48.858;8.530;2023-03-15T10:45:21;9.10;99.90
46336;DHT22;31365;48.858;8.530;2023-03-15T10:47:53;9.30;99.90
46336;DHT22;31365;48.858;8.530;2023-03-15T10:50:28;9.30;99.90
46336;DHT22;31365;48.858;8.530;2023-03-15T10:53:07;9.20;99.90
46336;DHT22;31365;48.858;8.530;2023-03-15T10:55:42;9.00;99.90
46336;DHT22;31365;48.858;8.530;2023-03-15T10:58:20;8.80;99.90
46336;DHT22;31365;48.858;8.530;2023-03-15T11:01:00;8.50;99.90
46336;DHT22;31365;48.858;8.530;2023-03-15T11:03:35;8.20;99.90
46336;DHT22;31365;48.858;8.530;2023-03-15T11:06:23;8.20;99.90
46336;DHT22;31365;48.858;8.530;2023-03-15T11:09:08;8.00;99.90
46336;DHT22;31365;48.858;8.530;2023-03-15T11:11:54;8.10;99.90
46336;DHT22;31365;48.858;8.530;2023-03-15T11:14:34;8.00;99.90
46336;DHT22;31365;48.858;8.530;2023-03-15T11:17:18;8.00;99.90
46336;DHT22;31365;48.858;8.530;2023-03-15T11:19:54;8.10;99.90
46336;DHT22;31365;48.858;8.530;2023-03-15T11:22:27;8.40;99.90
46336;DHT22;31365;48.858;8.530;2023-03-15T11:25:00;8.80;99.90
46336;DHT22;31365;48.858;8.530;2023-03-15T11:27:29;9.10;99.90
46336;DHT22;31365;48.858;8.530;2023-03-15T11:30:00;9.10;99.90
46336;DHT22;31365;48.858;8.530;2023-03-15T11:32:34;8.90;99.90
46336;DHT22;31365;48.858;8.530;2023-03-15T11:35:06;8.70;99.90
46336;DHT22;31365;48.858;8.530;2023-03-15T11:37:43;8.40;99.90
46336;DHT22;31365;48.858;8.530;2023-03-15T11:40:19;8.20;99.90
46336;DHT22;31365;48.858;8.530;2023-03-15T11:42:56;8.20;99.90
46336;DHT22;31365;48.858;8.530;2023-03-15T11:45:34;8.20;99.90
46336;DHT22;31365;48.858;8.530;2023-03-15T11:48:31;8.30;99.90
46336;DHT22;31365;48.858;8.530;2023-03-15T11:51:09;8.30;99.90
46336;DHT22;31365;48.858;8.530;2023-03-15T11:53:43;8.20;99.90
46336;DHT22;31365;48.858;8.530;2023-03-15T11:56:22;8.30;99.90
46336;DHT22;31365;48.858;8.530;2023-03-15T11:59:03;7.90;99.90
46336;DHT22;31365;48.858;8.530;2023-03-15T12:01:39;7.60;99.90
46336;DHT22;31365;48.858;8.530;2023-03-15T12:04:36;7.40;99.90
46336;DHT22;31365;48.858;8.530;2023-03-15T12:07:27;6.90;99.90
46336;DHT22;31365;48.858;8.530;2023-03-15T12:10:29;6.70;99.90
46336;DHT22;31365;48.858;8.530;2023-03-15T12:13:17;6.40;99.90
46336;DHT22;31365;48.858;8.530;2023-03-15T12:15:51;6.30;99.90
46336;DHT22;31365;48.858;8.530;2023-03-15T12:18:29;6.40;99.90
46336;DHT22;31365;48.858;8.530;2023-03-15T12:21:30;6.90;99.90
46336;DHT22;31365;48.858;8.530;2023-03-15T12:24:03;6.70;99.90
46336;DHT22;31365;48.858;8.530;2023-03-15T12:26:43;6.70;99.90
46336;DHT22;31365;48.858;8.530;2023-03-15T12:29:17;7.10;99.90
46336;DHT22;31365;48.858;8.530;2023-03-15T12:31:57;6.60;99.90
46336;DHT22;31365;48.858;8.530;2023-03-15T12:34:46;6.50;99.90
46336;DHT22;31365;48.858;8.530;2023-03-15T12:37:21;6.30;99.90
46336;DHT22;31365;48.858;8.530;2023-03-15T12:39:59;6.20;99.90
46336;DHT22;31365;48.858;8.530;2023-03-15T12:43:11;6.00;99.90
46336;DHT22;31365;48.858;8.530;2023-03-15T12:45:43;5.80;99.90
46336;DHT22;31365;48.858;8.530;2023-03-15T12:48:24;5.80;99.90
46336;DHT22;31365;48.858;8.530;2023-03-15T12:50:59;5.60;99.90
46336;DHT22;31365;48.858;8.530;2023-03-15T12:53:40;5.40;99.90
46336;DHT22;31365;48.858;8.530;2023-03-15T12:56:27;5.50;99.90
46336;DHT22;31365;48.858;8.530;2023-03-15T12:59:03;5.10;99.90
46336;DHT22;31365;48.858;8.530;2023-03-15T13:01:40;4.90;99.90
46336;DHT22;31365;48.858;8.530;2023-03-15T13:04:11;4.90;99.90
46336;DHT22;31365;48.858;8.530;2023-03-15T13:06:53;4.70;99.90
46336;DHT22;31365;48.858;8.530;2023-03-15T13:09:46;4.80;99.90
46336;DHT22;31365;48.858;8.530;2023-03-15T13:12:30;5.10;99.90
46336;DHT22;31365;48.858;8.530;2023-03-15T13:15:11;5.00;99.90
46336;DHT22;31365;48.858;8.530;2023-03-15T13:17:50;5.30;99.90
46336;DHT22;31365;48.858;8.530;2023-03-15T13:20:47;5.70;99.90
46336;DHT22;31365;48.858;8.530;2023-03-15T13:23:27;6.00;99.90
46336;DHT22;31365;48.858;8.530;2023-03-15T13:26:08;6.70;99.90
46336;DHT22;31365;48.858;8.530;2023-03-15T13:28:47;6.80;99.90
46336;DHT22;31365;48.858;8.530;2023-03-15T13:31:23;6.80;99.90
46336;DHT22;31365;48.858;8.530;2023-03-15T13:34:10;7.40;99.90
46336;DHT22;31365;48.858;8.530;2023-03-15T13:36:44;7.20;99.90
46336;DHT22;31365;48.858;8.530;2023-03-15T13:39:20;7.30;99.90
46336;DHT22;31365;48.858;8.530;2023-03-15T13:41:58;7.60;99.90
46336;DHT22;31365;48.858;8.530;2023-03-15T13:44:31;7.60;99.90
46336;DHT22;31365;48.858;8.530;2023-03-15T13:47:07;7.50;99.90
46336;DHT22;31365;48.858;8.530;2023-03-15T13:49:37;7.80;99.90
46336;DHT22;31365;48.858;8.530;2023-03-15T13:52:11;7.70;99.90
46336;DHT22;31365;48.858;8.530;2023-03-15T13:54:47;7.50;99.90
46336;DHT22;31365;48.858;8.530;2023-03-15T13:57:22;7.60;99.90
46336;DHT22;31365;48.858;8.530;2023-03-15T13:59:56;7.40;99.90
46336;DHT22;31365;48.858;8.530;2023-03-15T14:02:35;7.40;99.90
46336;DHT22;31365;48.858;8.530;2023-03-15T14:05:17;7.40;99.90
46336;DHT22;31365;48.858;8.530;2023-03-15T14:07:56;7.20;99.90
46336;DHT22;31365;48.858;8.530;2023-03-15T14:10:30;7.00;99.90
46336;DHT22;31365;48.858;8.530;2023-03-15T14:13:21;6.90;99.90
46336;DHT22;31365;48.858;8.530;2023-03-15T14:15:56;6.70;99.90
46336;DHT22;31365;48.858;8.530;2023-03-15T14:18:34;6.50;99.90
46336;DHT22;31365;48.858;8.530;2023-03-15T14:21:06;6.30;99.90
46336;DHT22;31365;48.858;8.530;2023-03-15T14:23:42;6.40;99.90
46336;DHT22;31365;48.858;8.530;2023-03-15T14:26:16;6.20;99.90
46336;DHT22;31365;48.858;8.530;2023-03-15T14:28:51;6.10;99.90
46336;DHT22;31365;48.858;8.530;2023-03-15T14:31:38;7.00;99.90
46336;DHT22;31365;48.858;8.530;2023-03-15T14:34:22;8.40;99.90
46336;DHT22;31365;48.858;8.530;2023-03-15T14:37:01;8.90;99.90
46336;DHT22;31365;48.858;8.530;2023-03-15T14:39:38;9.20;99.90
46336;DHT22;31365;48.858;8.530;2023-03-15T14:42:09;8.70;99.90
46336;DHT22;31365;48.858;8.530;2023-03-15T14:44:40;8.20;99.90
46336;DHT22;31365;48.858;8.530;2023-03-15T14:47:11;7.50;99.90
46336;DHT22;31365;48.858;8.530;2023-03-15T14:49:43;7.00;99.90
46336;DHT22;31365;48.858;8.530;2023-03-15T14:52:14;6.60;99.90
46336;DHT22;31365;48.858;8.530;2023-03-15T14:54:46;6.60;99.90
46336;DHT22;31365;48.858;8.530;2023-03-15T14:57:19;6.40;99.90
46336;DHT22;31365;48.858;8.530;2023-03-15T14:59:54;6.40;99.90
46336;DHT22;31365;48.858;8.530;2023-03-15T15:02:29;6.20;99.90
46336;DHT22;31365;48.858;8.530;2023-03-15T15:05:00;6.20;99.90
46336;DHT22;31365;48.858;8.530;2023-03-15T15:07:31;6.00;99.90
46336;DHT22;31365;48.858;8.530;2023-03-15T15:10:01;6.00;99.90
46336;DHT22;31365;48.858;8.530;2023-03-15T15:12:31;5.70;99.90
46336;DHT22;31365;48.858;8.530;2023-03-15T15:15:11;5.70;99.90
46336;DHT22;31365;48.858;8.530;2023-03-15T15:17:43;5.40;99.90
46336;DHT22;31365;48.858;8.530;2023-03-15T15:20:13;5.30;99.90
46336;DHT22;31365;48.858;8.530;2023-03-15T15:22:42;5.30;99.90
46336;DHT22;31365;48.858;8.530;2023-03-15T15:25:14;5.40;99.90
46336;DHT22;31365;48.858;8.530;2023-03-15T15:27:45;5.40;99.90
46336;DHT22;31365;48.858;8.530;2023-03-15T15:30:19;5.50;99.90
46336;DHT22;31365;48.858;8.530;2023-03-15T15:32:51;5.50;99.90
46336;DHT22;31365;48.858;8.530;2023-03-15T15:35:20;5.50;99.90
46336;DHT22;31365;48.858;8.530;2023-03-15T15:37:51;5.50;99.90
46336;DHT22;31365;48.858;8.530;2023-03-15T15:40:24;5.60;99.90
46336;DHT22;31365;48.858;8.530;2023-03-15T15:42:55;5.30;99.90
46336;DHT22;31365;48.858;8.530;2023-03-15T15:45:25;6.10;99.90
46336;DHT22;31365;48.858;8.530;2023-03-15T15:47:56;5.90;99.90
46336;DHT22;31365;48.858;8.530;2023-03-15T15:50:24;5.90;99.90
46336;DHT22;31365;48.858;8.530;2023-03-15T15:52:53;6.50;99.90
46336;DHT22;31365;48.858;8.530;2023-03-15T15:55:25;6.00;99.90
46336;DHT22;31365;48.858;8.530;2023-03-15T15:57:58;5.90;99.90
46336;DHT22;31365;48.858;8.530;2023-03-15T16:00:31;6.00;99.90
46336;DHT22;31365;48.858;8.530;2023-03-15T16:03:00;6.00;99.90
46336;DHT22;31365;48.858;8.530;2023-03-15T16:05:34;6.00;99.90
46336;DHT22;31365;48.858;8.530;2023-03-15T16:08:04;6.10;99.90
46336;DHT22;31365;48.858;8.530;2023-03-15T16:10:34;6.20;99.90
46336;DHT22;31365;48.858;8.530;2023-03-15T16:13:03;6.40;99.90
46336;DHT22;31365;48.858;8.530;2023-03-15T16:15:34;6.40;99.90
46336;DHT22;31365;48.858;8.530;2023-03-15T16:18:08;6.40;99.90
46336;DHT22;31365;48.858;8.530;2023-03-15T16:20:38;6.50;99.90
46336;DHT22;31365;48.858;8.530;2023-03-15T16:23:12;6.60;99.90
46336;DHT22;31365;48.858;8.530;2023-03-15T16:25:47;6.50;99.90
46336;DHT22;31365;48.858;8.530;2023-03-15T16:28:20;6.40;99.90
46336;DHT22;31365;48.858;8.530;2023-03-15T16:30:53;6.40;99.90
46336;DHT22;31365;48.858;8.530;2023-03-15T16:33:22;6.30;99.90
46336;DHT22;31365;48.858;8.530;2023-03-15T16:35:51;6.20;99.90
46336;DHT22;31365;48.858;8.530;2023-03-15T16:38:21;6.10;99.90
46336;DHT22;31365;48.858;8.530;2023-03-15T16:40:55;6.10;99.90
46336;DHT22;31365;48.858;8.530;2023-03-15T16:43:25;6.00;99.90
46336;DHT22;31365;48.858;8.530;2023-03-15T16:45:56;6.10;99.90
46336;DHT22;31365;48.858;8.530;2023-03-15T16:48:25;6.00;99.90
46336;DHT22;31365;48.858;8.530;2023-03-15T16:50:55;5.90;99.90
46336;DHT22;31365;48.858;8.530;2023-03-15T16:53:24;5.80;99.90
46336;DHT22;31365;48.858;8.530;2023-03-15T16:55:53;5.80;99.90
46336;DHT22;31365;48.858;8.530;2023-03-15T16:58:22;5.80;99.90
46336;DHT22;31365;48.858;8.530;2023-03-15T17:00:51;5.80;99.90
46336;DHT22;31365;48.858;8.530;2023-03-15T17:03:21;5.80;99.90
46336;DHT22;31365;48.858;8.530;2023-03-15T17:05:50;5.70;99.90
46336;DHT22;31365;48.858;8.530;2023-03-15T17:08:20;5.60;99.90
46336;DHT22;31365;48.858;8.530;2023-03-15T17:10:49;5.50;99.90
46336;DHT22;31365;48.858;8.530;2023-03-15T17:13:23;5.60;99.90
46336;DHT22;31365;48.858;8.530;2023-03-15T17:15:53;5.40;99.90
46336;DHT22;31365;48.858;8.530;2023-03-15T17:18:24;5.50;99.90
46336;DHT22;31365;48.858;8.530;2023-03-15T17:20:56;5.30;99.90
46336;DHT22;31365;48.858;8.530;2023-03-15T17:23:25;5.30;99.90
46336;DHT22;31365;48.858;8.530;2023-03-15T17:25:53;5.10;99.90
46336;DHT22;31365;48.858;8.530;2023-03-15T17:28:23;5.30;99.90
46336;DHT22;31365;48.858;8.530;2023-03-15T17:30:51;5.30;99.90
46336;DHT22;31365;48.858;8.530;2023-03-15T17:33:46;5.40;99.90
46336;DHT22;31365;48.858;8.530;2023-03-15T17:36:19;5.20;99.90
46336;DHT22;31365;48.858;8.530;2023-03-15T17:38:49;5.20;99.90
46336;DHT22;31365;48.858;8.530;2023-03-15T17:41:20;5.20;99.90
46336;DHT22;31365;48.858;8.530;2023-03-15T17:43:51;5.10;99.90
46336;DHT22;31365;48.858;8.530;2023-03-15T17:46:21;5.10;99.90
46336;DHT22;31365;48.858;8.530;2023-03-15T17:48:58;5.00;99.90
46336;DHT22;31365;48.858;8.530;2023-03-15T17:51:30;5.10;99.90
46336;DHT22;31365;48.858;8.530;2023-03-15T17:54:01;5.00;99.90
46336;DHT22;31365;48.858;8.530;2023-03-15T17:56:39;4.90;99.90
46336;DHT22;31365;48.858;8.530;2023-03-15T17:59:09;5.00;99.90
46336;DHT22;31365;48.858;8.530;2023-03-15T18:01:39;4.80;99.90
46336;DHT22;31365;48.858;8.530;2023-03-15T18:04:13;4.70;99.90
46336;DHT22;31365;48.858;8.530;2023-03-15T18:06:43;4.60;99.90
46336;DHT22;31365;48.858;8.530;2023-03-15T18:09:12;4.80;99.90
46336;DHT22;31365;48.858;8.530;2023-03-15T18:11:43;4.50;99.90
46336;DHT22;31365;48.858;8.530;2023-03-15T18:14:14;4.50;99.90
46336;DHT22;31365;48.858;8.530;2023-03-15T18:16:44;4.40;99.90
46336;DHT22;31365;48.858;8.530;2023-03-15T18:19:16;4.40;99.90
46336;DHT22;31365;48.858;8.530;2023-03-15T18:21:44;4.30;99.90
46336;DHT22;31365;48.858;8.530;2023-03-15T18:24:13;4.20;99.90
46336;DHT22;31365;48.858;8.530;2023-03-15T18:26:41;4.40;99.90
46336;DHT22;31365;48.858;8.530;2023-03-15T18:29:10;4.20;99.90
46336;DHT22;31365;48.858;8.530;2023-03-15T18:31:39;4.10;99.90
46336;DHT22;31365;48.858;8.530;2023-03-15T18:34:10;4.00;99.90
46336;DHT22;31365;48.858;8.530;2023-03-15T18:36:42;4.10;99.90
46336;DHT22;31365;48.858;8.530;2023-03-15T18:39:11;3.90;99.90
46336;DHT22;31365;48.858;8.530;2023-03-15T18:41:40;3.90;99.90
46336;DHT22;31365;48.858;8.530;2023-03-15T18:44:09;3.90;99.90
46336;DHT22;31365;48.858;8.530;2023-03-15T18:46:38;3.90;99.90
46336;DHT22;31365;48.858;8.530;2023-03-15T18:49:09;3.90;99.90
46336;DHT22;31365;48.858;8.530;2023-03-15T18:51:38;3.80;99.90
46336;DHT22;31365;48.858;8.530;2023-03-15T18:54:08;3.80;99.90
46336;DHT22;31365;48.858;8.530;2023-03-15T18:56:37;3.80;99.90
46336;DHT22;31365;48.858;8.530;2023-03-15T18:59:05;3.70;99.90
46336;DHT22;31365;48.858;8.530;2023-03-15T19:01:35;3.60;99.90
46336;DHT22;31365;48.858;8.530;2023-03-15T19:04:04;3.70;99.90
46336;DHT22;31365;48.858;8.530;2023-03-15T19:06:34;3.60;99.90
46336;DHT22;31365;48.858;8.530;2023-03-15T19:09:03;3.60;99.90
46336;DHT22;31365;48.858;8.530;2023-03-15T19:11:33;3.80;99.90
46336;DHT22;31365;48.858;8.530;2023-03-15T19:14:08;3.50;99.90
46336;DHT22;31365;48.858;8.530;2023-03-15T19:16:37;3.50;99.90
46336;DHT22;31365;48.858;8.530;2023-03-15T19:19:06;3.50;99.90
46336;DHT22;31365;48.858;8.530;2023-03-15T19:21:35;3.40;99.90
46336;DHT22;31365;48.858;8.530;2023-03-15T19:24:05;3.40;99.90
46336;DHT22;31365;48.858;8.530;2023-03-15T19:26:35;3.30;99.90
46336;DHT22;31365;48.858;8.530;2023-03-15T19:29:04;3.30;99.90
46336;DHT22;31365;48.858;8.530;2023-03-15T19:31:33;3.20;99.90
46336;DHT22;31365;48.858;8.530;2023-03-15T19:34:01;3.50;99.90
46336;DHT22;31365;48.858;8.530;2023-03-15T19:36:30;3.20;99.90
46336;DHT22;31365;48.858;8.530;2023-03-15T19:38:59;3.20;99.90
46336;DHT22;31365;48.858;8.530;2023-03-15T19:41:30;3.10;99.90
46336;DHT22;31365;48.858;8.530;2023-03-15T19:44:02;3.10;99.90
46336;DHT22;31365;48.858;8.530;2023-03-15T19:46:31;3.20;99.90
46336;DHT22;31365;48.858;8.530;2023-03-15T19:49:01;3.10;99.90
46336;DHT22;31365;48.858;8.530;2023-03-15T20:01:16;3.00;99.90
46336;DHT22;31365;48.858;8.530;2023-03-15T20:03:44;2.90;99.90
46336;DHT22;31365;48.858;8.530;2023-03-15T20:06:14;2.90;99.90
46336;DHT22;31365;48.858;8.530;2023-03-15T20:08:43;2.90;99.90
46336;DHT22;31365;48.858;8.530;2023-03-15T20:11:12;3.10;99.90
46336;DHT22;31365;48.858;8.530;2023-03-15T20:13:46;2.80;99.90
46336;DHT22;31365;48.858;8.530;2023-03-15T20:16:38;2.80;99.90
46336;DHT22;31365;48.858;8.530;2023-03-15T20:19:07;2.80;99.90
46336;DHT22;31365;48.858;8.530;2023-03-15T20:21:36;2.80;99.90
46336;DHT22;31365;48.858;8.530;2023-03-15T20:24:06;2.90;99.90
46336;DHT22;31365;48.858;8.530;2023-03-15T20:26:35;2.70;99.90
46336;DHT22;31365;48.858;8.530;2023-03-15T20:29:04;2.80;99.90
46336;DHT22;31365;48.858;8.530;2023-03-15T20:31:33;2.70;99.90
46336;DHT22;31365;48.858;8.530;2023-03-15T20:34:03;2.80;99.90
46336;DHT22;31365;48.858;8.530;2023-03-15T20:36:35;2.70;99.90
46336;DHT22;31365;48.858;8.530;2023-03-15T20:39:03;2.70;99.90
46336;DHT22;31365;48.858;8.530;2023-03-15T20:41:32;2.90;99.90
46336;DHT22;31365;48.858;8.530;2023-03-15T20:44:01;2.90;99.90
46336;DHT22;31365;48.858;8.530;2023-03-15T20:46:46;2.60;99.90
46336;DHT22;31365;48.858;8.530;2023-03-15T20:49:17;2.60;99.90
46336;DHT22;31365;48.858;8.530;2023-03-15T20:51:45;2.60;99.90
46336;DHT22;31365;48.858;8.530;2023-03-15T20:54:17;2.50;99.90
46336;DHT22;31365;48.858;8.530;2023-03-15T20:56:46;2.60;99.90
46336;DHT22;31365;48.858;8.530;2023-03-15T20:59:15;2.60;99.90
46336;DHT22;31365;48.858;8.530;2023-03-15T21:01:44;2.30;99.90
46336;DHT22;31365;48.858;8.530;2023-03-15T21:04:13;1.90;99.90
46336;DHT22;31365;48.858;8.530;2023-03-15T21:06:47;2.50;99.90
46336;DHT22;31365;48.858;8.530;2023-03-15T21:09:16;2.30;99.90
46336;DHT22;31365;48.858;8.530;2023-03-15T21:11:46;2.30;99.90
46336;DHT22;31365;48.858;8.530;2023-03-15T21:14:21;2.30;99.90
46336;DHT22;31365;48.858;8.530;2023-03-15T21:16:50;2.20;99.90
46336;DHT22;31365;48.858;8.530;2023-03-15T21:22:52;2.10;99.90
46336;DHT22;31365;48.858;8.530;2023-03-15T21:25:21;2.30;99.90
46336;DHT22;31365;48.858;8.530;2023-03-15T21:27:50;2.10;99.90
46336;DHT22;31365;48.858;8.530;2023-03-15T21:30:20;1.90;99.90
46336;DHT22;31365;48.858;8.530;2023-03-15T21:32:53;1.90;99.90
46336;DHT22;31365;48.858;8.530;2023-03-15T21:35:22;1.90;99.90
46336;DHT22;31365;48.858;8.530;2023-03-15T21:38:11;1.90;99.90
46336;DHT22;31365;48.858;8.530;2023-03-15T21:40:56;1.90;99.90
46336;DHT22;31365;48.858;8.530;2023-03-15T21:43:28;1.90;99.90
46336;DHT22;31365;48.858;8.530;2023-03-15T21:45:59;1.80;99.90
46336;DHT22;31365;48.858;8.530;2023-03-15T21:48:29;1.80;99.90
46336;DHT22;31365;48.858;8.530;2023-03-15T21:51:01;1.70;99.90
46336;DHT22;31365;48.858;8.530;2023-03-15T21:53:50;1.60;99.90
46336;DHT22;31365;48.858;8.530;2023-03-15T21:56:20;1.70;99.90
46336;DHT22;31365;48.858;8.530;2023-03-15T21:58:59;1.60;99.90
46336;DHT22;31365;48.858;8.530;2023-03-15T22:01:28;1.80;99.90
46336;DHT22;31365;48.858;8.530;2023-03-15T22:04:04;1.70;99.90
46336;DHT22;31365;48.858;8.530;2023-03-15T22:06:33;1.70;99.90
46336;DHT22;31365;48.858;8.530;2023-03-15T22:09:04;1.70;99.90
46336;DHT22;31365;48.858;8.530;2023-03-15T22:11:33;1.80;99.90
46336;DHT22;31365;48.858;8.530;2023-03-15T22:14:02;1.70;99.90
46336;DHT22;31365;48.858;8.530;2023-03-15T22:16:31;1.80;99.90
46336;DHT22;31365;48.858;8.530;2023-03-15T22:19:08;1.80;99.90
46336;DHT22;31365;48.858;8.530;2023-03-15T22:21:41;1.80;99.90
46336;DHT22;31365;48.858;8.530;2023-03-15T22:49:34;1.70;99.90
46336;DHT22;31365;48.858;8.530;2023-03-15T23:22:32;1.70;99.90
46336;DHT22;31365;48.858;8.530;2023-03-15T23:44:36;1.70;99.90
46336;DHT22;31365;48.858;8.530;2023-03-15T23:47:25;1.90;99.90
46336;DHT22;31365;48.858;8.530;2023-03-15T23:53:38;1.60;99.90
46336;DHT22;31365;48.858;8.530;2023-03-15T23:56:28;1.50;99.90
46336;DHT22;31365;48.858;8.530;2023-03-15T23:59:24;1.40;99.90
